Ashtabula, Ohio
Current Conditions -  °F | °C
As of 7:53 AM on Friday 24 Oct 2014 (Local Time) from KHZY Reporting Station
Haze Haze  
Wind Chill:   Ceiling: 300
Heat Index:   Visibility: 0.75mi
Dew Point:   Wind: 0mph
Humidity: 93%   Direction: NA
Pressure: 30.09"   Gusts: NA
Location:  41.89°N, 80.79°W
Report Text: KHZY 241153Z AUTO 00000KT 3/4SM BR VV003 02/01 A3009 RMK AO2 SLP193 I6000 T00220011 10044 20006 50000
Loading
Personal Weather Stations






























Interactive Weather Map
Tropical Storm Tracking
New forecast layout! Learn more

10-Day Weather Forecast

Advertisements
Track Severe Weather on mobile